createdAt,value
2023-04-30T00:00:41.415Z,74.54
2023-04-30T00:02:04.513Z,74.67
2023-04-30T00:03:07.570Z,74.73
2023-04-30T00:04:10.612Z,74.80
2023-04-30T00:05:13.477Z,74.87
2023-04-30T00:06:16.432Z,74.88
2023-04-30T00:07:19.362Z,75.03
2023-04-30T00:08:22.290Z,75.10
2023-04-30T00:09:25.519Z,75.01
2023-04-30T00:10:28.434Z,75.15
2023-04-30T00:11:31.368Z,75.22
2023-04-30T00:12:34.186Z,75.28
2023-04-30T00:13:37.562Z,75.33
2023-04-30T00:14:40.380Z,75.35
2023-04-30T00:15:43.199Z,75.43
2023-04-30T00:16:46.504Z,75.42
2023-04-30T00:17:49.459Z,75.54
2023-04-30T00:18:52.404Z,75.54
2023-04-30T00:19:55.782Z,75.41
2023-04-30T00:20:58.718Z,75.52
2023-04-30T00:22:05.542Z,75.65
2023-04-30T00:23:08.497Z,75.86
2023-04-30T00:24:11.655Z,75.83
2023-04-30T00:25:14.573Z,75.80
2023-04-30T00:26:17.402Z,75.85
2023-04-30T00:27:21.786Z,75.96
2023-04-30T00:28:24.647Z,75.98
2023-04-30T00:29:27.517Z,76.06
2023-04-30T00:30:30.467Z,76.13
2023-04-30T00:31:33.388Z,76.13
2023-04-30T00:32:36.449Z,76.27
2023-04-30T00:33:39.588Z,76.34
2023-04-30T00:34:42.805Z,76.32
2023-04-30T00:35:45.770Z,76.40
2023-04-30T00:36:48.590Z,76.52
2023-04-30T00:37:51.445Z,76.59
2023-04-30T00:38:54.331Z,76.58
2023-04-30T00:39:57.506Z,76.63
2023-04-30T00:41:00.500Z,76.76
2023-04-30T00:42:03.423Z,76.95
2023-04-30T00:43:06.333Z,76.83
2023-04-30T00:44:09.187Z,76.86
2023-04-30T00:45:12.288Z,76.91
2023-04-30T00:46:15.384Z,77.00
2023-04-30T00:47:18.475Z,77.08
2023-04-30T00:48:21.893Z,77.13
2023-04-30T00:49:25.374Z,77.06
2023-04-30T00:50:29.374Z,77.13
2023-04-30T00:51:33.445Z,77.16
2023-04-30T00:52:36.430Z,77.19
2023-04-30T00:53:41.373Z,77.23
2023-04-30T00:54:44.349Z,77.31
2023-04-30T00:55:48.648Z,77.48
2023-04-30T00:56:52.140Z,77.47
2023-04-30T00:57:55.287Z,77.58
2023-04-30T00:58:58.496Z,77.53
2023-04-30T01:00:02.122Z,77.53
2023-04-30T01:01:06.929Z,77.47
2023-04-30T01:02:10.376Z,77.61
2023-04-30T01:03:14.521Z,77.62
2023-04-30T01:04:18.382Z,77.63
2023-04-30T01:05:22.985Z,77.80
2023-04-30T01:06:27.037Z,77.81
2023-04-30T01:07:31.402Z,77.81
2023-04-30T01:08:34.750Z,77.90
2023-04-30T01:09:38.186Z,77.90
2023-04-30T01:11:19.880Z,77.93
2023-04-30T01:12:42.845Z,78.16
2023-04-30T01:14:08.458Z,78.20
2023-04-30T01:15:33.416Z,78.34
2023-04-30T01:16:58.402Z,78.34
2023-04-30T01:18:09.267Z,78.34
2023-04-30T01:19:41.129Z,78.36
2023-04-30T01:21:07.748Z,78.36
2023-04-30T01:22:24.159Z,78.32
2023-04-30T01:23:35.980Z,78.33
2023-04-30T01:25:02.186Z,78.39
2023-04-30T01:26:08.434Z,78.49
2023-04-30T01:27:48.343Z,78.41
2023-04-30T01:28:53.458Z,78.48
2023-04-30T01:29:58.018Z,78.54
2023-04-30T01:31:01.635Z,78.56
2023-04-30T01:32:04.593Z,78.56
2023-04-30T01:33:07.580Z,78.64
2023-04-30T01:34:10.635Z,78.73
2023-04-30T01:35:13.479Z,78.87
2023-04-30T01:37:10.651Z,78.92
2023-04-30T01:38:37.746Z,79.13
2023-04-30T01:40:11.432Z,79.14
2023-04-30T01:41:24.761Z,79.17
2023-04-30T01:43:05.793Z,79.33
2023-04-30T01:44:41.239Z,79.30
2023-04-30T01:45:54.509Z,79.17
2023-04-30T01:47:17.262Z,79.32
2023-04-30T01:48:32.626Z,79.41
2023-04-30T01:50:01.076Z,79.48
2023-04-30T01:51:22.750Z,79.63
2023-04-30T01:52:43.054Z,79.79
2023-04-30T01:53:47.003Z,79.84
2023-04-30T01:54:56.420Z,79.85
2023-04-30T01:56:03.733Z,79.85
2023-04-30T01:57:11.629Z,79.86
2023-04-30T01:58:16.767Z,79.90
2023-04-30T01:59:20.266Z,79.88
2023-04-30T02:00:23.659Z,79.92
2023-04-30T02:01:28.740Z,79.90
2023-04-30T02:02:31.916Z,79.99
2023-04-30T02:03:34.844Z,79.94
2023-04-30T02:04:38.403Z,79.98
2023-04-30T02:05:41.382Z,79.96
2023-04-30T02:06:44.311Z,79.98
2023-04-30T02:07:49.297Z,79.97
2023-04-30T02:08:52.245Z,79.93
2023-04-30T02:09:55.335Z,80.01
2023-04-30T02:10:58.400Z,80.13
2023-04-30T02:12:01.284Z,80.12
2023-04-30T02:13:04.173Z,80.20
2023-04-30T02:14:07.199Z,80.25
2023-04-30T02:15:10.956Z,80.21
2023-04-30T02:16:14.019Z,80.31
2023-04-30T02:17:16.901Z,80.39
2023-04-30T02:18:19.802Z,80.42
2023-04-30T02:19:23.137Z,80.48
2023-04-30T02:20:25.982Z,80.60
2023-04-30T02:21:29.381Z,80.54
2023-04-30T02:22:32.272Z,80.57
2023-04-30T02:23:35.440Z,80.66
2023-04-30T02:24:38.297Z,80.68
2023-04-30T02:25:41.771Z,80.78
2023-04-30T02:26:44.688Z,80.81
2023-04-30T02:27:47.777Z,80.83
2023-04-30T02:28:50.677Z,80.82
2023-04-30T02:29:54.138Z,80.93
2023-04-30T02:30:57.414Z,81.03
2023-04-30T02:32:00.896Z,81.10
2023-04-30T02:33:03.976Z,81.17
2023-04-30T02:34:06.901Z,81.29
2023-04-30T02:35:09.849Z,81.41
2023-04-30T02:36:12.737Z,81.36
2023-04-30T02:37:16.111Z,81.33
2023-04-30T02:38:18.950Z,81.41
2023-04-30T02:39:22.003Z,81.42
2023-04-30T02:40:24.887Z,81.30
2023-04-30T02:41:27.711Z,81.35
2023-04-30T02:42:31.095Z,81.44
2023-04-30T02:43:33.986Z,81.56
2023-04-30T02:44:36.950Z,81.54
2023-04-30T02:45:40.420Z,81.57
2023-04-30T02:46:43.320Z,81.69
2023-04-30T02:47:46.201Z,81.64
2023-04-30T02:48:49.167Z,81.64
2023-04-30T02:49:52.724Z,81.59
2023-04-30T02:50:55.875Z,81.60
2023-04-30T02:51:58.787Z,81.63
2023-04-30T02:53:01.974Z,81.58
2023-04-30T02:54:04.776Z,81.46
2023-04-30T02:55:08.103Z,81.64
2023-04-30T02:56:11.219Z,81.72
2023-04-30T02:57:14.140Z,81.71
2023-04-30T02:58:17.013Z,81.72
2023-04-30T02:59:19.900Z,81.75
2023-04-30T03:00:23.266Z,81.64
2023-04-30T03:01:26.420Z,81.76
2023-04-30T03:02:29.861Z,81.68
2023-04-30T03:03:33.780Z,81.60
2023-04-30T03:04:36.689Z,81.68
2023-04-30T03:05:39.872Z,81.68
2023-04-30T03:06:42.717Z,81.56
2023-04-30T03:07:47.168Z,81.58
2023-04-30T03:08:50.028Z,81.57
2023-04-30T03:09:53.036Z,81.53
2023-04-30T03:10:56.241Z,81.47
2023-04-30T03:11:59.288Z,81.41
2023-04-30T03:13:02.294Z,81.41
2023-04-30T03:14:05.252Z,81.42
2023-04-30T03:15:09.032Z,81.42
2023-04-30T03:16:12.065Z,81.47
2023-04-30T03:17:14.990Z,81.40
2023-04-30T03:18:17.863Z,81.36
2023-04-30T03:19:25.135Z,81.28
2023-04-30T03:20:28.365Z,81.43
2023-04-30T03:21:31.602Z,81.33
2023-04-30T03:22:34.504Z,81.29
2023-04-30T03:23:37.714Z,81.19
2023-04-30T03:24:41.258Z,81.26
2023-04-30T03:25:44.897Z,81.29
2023-04-30T03:26:47.793Z,81.26
2023-04-30T03:27:50.661Z,81.13
2023-04-30T03:28:55.244Z,80.98
2023-04-30T03:29:58.058Z,80.91
2023-04-30T03:31:01.256Z,80.98
2023-04-30T03:32:04.446Z,80.83
2023-04-30T03:33:07.986Z,80.76
2023-04-30T03:34:11.483Z,80.63
2023-04-30T03:35:14.535Z,80.56
2023-04-30T03:36:17.387Z,80.42
2023-04-30T03:37:20.287Z,80.48
2023-04-30T03:38:23.251Z,80.29
2023-04-30T03:39:26.235Z,80.31
2023-04-30T03:40:29.307Z,80.30
2023-04-30T03:41:32.232Z,80.32
2023-04-30T03:42:35.155Z,80.37
2023-04-30T03:43:38.337Z,80.23
2023-04-30T03:44:41.408Z,80.51
2023-04-30T03:45:44.739Z,80.32
2023-04-30T03:46:47.610Z,80.41
2023-04-30T03:47:52.237Z,80.47
2023-04-30T03:48:55.209Z,80.32
2023-04-30T03:49:58.115Z,80.39
2023-04-30T03:51:01.427Z,80.44
2023-04-30T03:52:05.729Z,80.43
2023-04-30T03:53:09.147Z,80.45
2023-04-30T03:54:12.092Z,80.53
2023-04-30T03:55:15.284Z,80.42
2023-04-30T03:56:18.332Z,80.52
2023-04-30T03:57:21.783Z,80.45
2023-04-30T03:58:24.967Z,80.50
2023-04-30T03:59:27.783Z,80.31
2023-04-30T04:00:31.235Z,80.31
2023-04-30T04:01:34.360Z,80.20
2023-04-30T04:02:37.844Z,80.33
2023-04-30T04:03:40.998Z,80.34
2023-04-30T04:04:44.109Z,80.31
2023-04-30T04:05:47.409Z,80.24
2023-04-30T04:06:50.661Z,79.77
2023-04-30T04:07:54.048Z,80.03
2023-04-30T04:08:56.871Z,79.92
2023-04-30T04:09:59.790Z,79.74
2023-04-30T04:11:03.344Z,79.84
2023-04-30T04:12:06.784Z,79.75
2023-04-30T04:13:09.723Z,79.71
2023-04-30T04:14:12.724Z,79.78
2023-04-30T04:15:15.665Z,79.64
2023-04-30T04:16:20.786Z,79.65
2023-04-30T04:17:23.777Z,79.72
2023-04-30T04:18:26.734Z,79.66
2023-04-30T04:19:29.648Z,79.74
2023-04-30T04:20:34.084Z,79.78
2023-04-30T04:21:37.124Z,79.96
2023-04-30T04:22:43.072Z,80.07
2023-04-30T04:23:46.444Z,80.24
2023-04-30T04:24:49.904Z,80.15
2023-04-30T04:25:55.508Z,80.25
2023-04-30T04:26:58.384Z,80.05
2023-04-30T04:28:01.271Z,80.03
2023-04-30T04:29:05.010Z,79.87
2023-04-30T04:30:08.343Z,80.13
2023-04-30T04:31:11.673Z,80.00
2023-04-30T04:32:15.039Z,80.00
2023-04-30T04:33:18.369Z,79.79
2023-04-30T04:34:21.409Z,80.04
2023-04-30T04:35:24.364Z,79.90
2023-04-30T04:36:28.816Z,79.61
2023-04-30T04:37:32.091Z,79.61
2023-04-30T04:38:34.933Z,79.67
2023-04-30T04:39:38.600Z,79.79
2023-04-30T04:40:41.547Z,79.76
2023-04-30T04:41:44.701Z,79.72
2023-04-30T04:42:50.519Z,79.83
2023-04-30T04:43:53.549Z,79.54
2023-04-30T04:44:56.857Z,79.37
2023-04-30T04:45:59.771Z,79.43
2023-04-30T04:47:03.537Z,79.34
2023-04-30T04:48:07.459Z,79.30
2023-04-30T04:49:10.416Z,79.13
2023-04-30T04:50:13.846Z,79.11
2023-04-30T04:51:16.908Z,79.19
2023-04-30T04:52:19.815Z,78.89
2023-04-30T04:53:24.289Z,79.00
2023-04-30T04:54:27.209Z,78.99
2023-04-30T04:55:30.114Z,78.88
2023-04-30T04:56:34.157Z,78.75
2023-04-30T04:57:37.052Z,78.84
2023-04-30T04:58:40.063Z,78.79
2023-04-30T04:59:42.928Z,78.90
2023-04-30T05:00:45.889Z,78.95
2023-04-30T05:01:49.769Z,79.04
2023-04-30T05:02:53.613Z,78.81
2023-04-30T05:03:56.863Z,78.56
2023-04-30T05:05:00.158Z,78.63
2023-04-30T05:06:03.929Z,78.85
2023-04-30T05:07:08.182Z,78.74
2023-04-30T05:08:11.167Z,78.83
2023-04-30T05:09:14.147Z,78.92
2023-04-30T05:10:17.216Z,78.93
2023-04-30T05:11:20.115Z,78.93
2023-04-30T05:12:23.155Z,78.98
2023-04-30T05:13:26.464Z,78.91
2023-04-30T05:14:29.516Z,78.90
2023-04-30T05:15:32.382Z,78.91
2023-04-30T05:16:35.457Z,78.92
2023-04-30T05:17:38.443Z,78.64
2023-04-30T05:18:41.370Z,78.77
2023-04-30T05:19:44.761Z,78.77
2023-04-30T05:20:47.665Z,78.62
2023-04-30T05:21:51.392Z,78.57
2023-04-30T05:22:54.218Z,78.64
2023-04-30T05:23:57.228Z,78.50
2023-04-30T05:25:00.325Z,78.67
2023-04-30T05:26:03.914Z,78.43
2023-04-30T05:27:06.781Z,78.49
2023-04-30T05:28:09.956Z,78.64
2023-04-30T05:29:12.987Z,78.60
2023-04-30T05:30:15.978Z,78.41
2023-04-30T05:31:20.784Z,78.40
2023-04-30T05:32:24.102Z,78.22
2023-04-30T05:33:27.456Z,78.03
2023-04-30T05:34:30.403Z,78.05
2023-04-30T05:35:36.119Z,77.87
2023-04-30T05:36:39.258Z,78.11
2023-04-30T05:37:42.119Z,78.17
2023-04-30T05:38:45.013Z,78.09
2023-04-30T05:39:47.915Z,78.13
2023-04-30T05:40:50.815Z,78.07
2023-04-30T05:41:53.665Z,78.14
2023-04-30T05:42:56.784Z,78.25
2023-04-30T05:43:59.744Z,78.40
2023-04-30T05:45:03.155Z,78.18
2023-04-30T05:46:06.703Z,78.21
2023-04-30T05:47:09.795Z,78.15
2023-04-30T05:48:13.163Z,78.19
2023-04-30T05:49:16.103Z,78.30
2023-04-30T05:50:19.008Z,78.43
2023-04-30T05:51:21.873Z,78.38
2023-04-30T05:52:24.827Z,78.28
2023-04-30T05:53:28.356Z,78.27
2023-04-30T05:54:31.462Z,78.34
2023-04-30T05:55:34.725Z,78.32
2023-04-30T05:56:37.592Z,78.40
2023-04-30T05:57:40.459Z,78.62
2023-04-30T05:58:43.369Z,78.71
2023-04-30T05:59:46.223Z,78.73
2023-04-30T06:00:52.102Z,78.63
2023-04-30T06:01:55.021Z,78.83
2023-04-30T06:02:58.220Z,78.82
2023-04-30T06:04:01.420Z,78.78
2023-04-30T06:05:04.597Z,78.81
2023-04-30T06:06:07.729Z,78.77
2023-04-30T06:07:10.909Z,78.90
2023-04-30T06:08:14.115Z,78.86
2023-04-30T06:09:16.942Z,78.74
2023-04-30T06:10:19.790Z,78.88
2023-04-30T06:11:22.772Z,78.82
2023-04-30T06:12:26.168Z,79.07
2023-04-30T06:13:29.055Z,79.12
2023-04-30T06:14:32.176Z,79.14
2023-04-30T06:15:35.198Z,78.99
2023-04-30T06:16:38.595Z,78.64
2023-04-30T06:17:41.547Z,78.43
2023-04-30T06:18:44.760Z,78.32
2023-04-30T06:19:47.628Z,78.39
2023-04-30T06:20:50.546Z,78.40
2023-04-30T06:21:53.372Z,78.22
2023-04-30T06:22:56.254Z,78.14
2023-04-30T06:23:59.128Z,78.05
2023-04-30T06:25:02.045Z,78.13
2023-04-30T06:26:05.004Z,78.12
2023-04-30T06:27:07.843Z,78.13
2023-04-30T06:28:10.864Z,78.26
2023-04-30T06:29:13.757Z,78.68
2023-04-30T06:30:16.963Z,78.13
2023-04-30T06:31:19.885Z,77.93
2023-04-30T06:32:22.833Z,77.54
2023-04-30T06:33:25.838Z,77.46
2023-04-30T06:34:28.805Z,77.70
2023-04-30T06:35:31.626Z,77.71
2023-04-30T06:36:34.494Z,77.32
2023-04-30T06:37:38.121Z,77.66
2023-04-30T06:38:42.622Z,77.33
2023-04-30T06:39:45.569Z,77.01
2023-04-30T06:40:48.542Z,76.37
2023-04-30T06:41:52.118Z,76.13
2023-04-30T06:42:57.898Z,75.80
2023-04-30T06:44:00.871Z,75.66
2023-04-30T06:45:04.179Z,75.07
2023-04-30T06:46:07.155Z,75.01
2023-04-30T06:47:13.653Z,74.66
2023-04-30T06:48:16.631Z,74.65
2023-04-30T06:49:19.544Z,74.40
2023-04-30T06:50:22.439Z,74.20
2023-04-30T06:51:25.726Z,74.08
2023-04-30T06:52:31.264Z,73.66
2023-04-30T06:53:34.138Z,72.80
2023-04-30T06:54:37.180Z,72.26
2023-04-30T06:55:41.396Z,71.67
2023-04-30T06:56:45.202Z,70.75
2023-04-30T06:57:48.277Z,70.50
2023-04-30T06:58:51.112Z,70.03
2023-04-30T06:59:55.998Z,69.80
2023-04-30T07:00:59.016Z,69.06
2023-04-30T07:02:02.062Z,69.34
2023-04-30T07:03:05.058Z,69.24
2023-04-30T07:04:08.000Z,69.52
2023-04-30T07:05:12.206Z,68.90
2023-04-30T07:06:15.624Z,69.31
2023-04-30T07:07:18.608Z,69.09
2023-04-30T07:08:22.130Z,69.14
2023-04-30T07:09:24.973Z,69.51
2023-04-30T07:10:28.066Z,68.43
2023-04-30T07:11:31.230Z,67.52
2023-04-30T07:12:34.197Z,67.07
2023-04-30T07:13:37.384Z,66.70
2023-04-30T07:14:40.416Z,66.92
2023-04-30T07:15:43.520Z,67.24
2023-04-30T07:16:46.448Z,67.08
2023-04-30T07:17:49.689Z,67.41
2023-04-30T07:18:52.607Z,67.70
2023-04-30T07:19:56.022Z,67.07
2023-04-30T07:20:59.566Z,66.82
2023-04-30T07:22:02.607Z,66.12
2023-04-30T07:23:05.449Z,66.13
2023-04-30T07:24:08.436Z,66.52
2023-04-30T07:25:12.334Z,66.33
2023-04-30T07:26:15.766Z,65.57
2023-04-30T07:27:18.626Z,65.85
2023-04-30T07:28:21.501Z,65.90
2023-04-30T07:29:24.351Z,64.91
2023-04-30T07:30:27.196Z,65.31
2023-04-30T07:31:30.263Z,65.01
2023-04-30T07:32:34.442Z,65.16
2023-04-30T07:33:37.572Z,65.36
2023-04-30T07:34:42.238Z,65.65
2023-04-30T07:35:45.213Z,65.34
2023-04-30T07:36:49.267Z,65.22
2023-04-30T07:37:52.138Z,64.94
2023-04-30T07:38:55.604Z,64.93
2023-04-30T07:39:58.540Z,64.58
2023-04-30T07:41:02.338Z,64.81
2023-04-30T07:42:05.588Z,65.01
2023-04-30T07:43:08.392Z,64.89
2023-04-30T07:44:12.206Z,64.28
2023-04-30T07:45:15.187Z,64.02
2023-04-30T07:46:18.299Z,63.86
2023-04-30T07:47:21.396Z,63.62
2023-04-30T07:48:24.263Z,63.75
2023-04-30T07:49:27.160Z,63.92
2023-04-30T07:50:33.928Z,64.03
2023-04-30T07:51:37.525Z,63.88
2023-04-30T07:52:41.297Z,64.02
2023-04-30T07:53:44.144Z,64.11
2023-04-30T07:54:47.035Z,64.20
2023-04-30T07:55:49.872Z,63.93
2023-04-30T07:56:52.745Z,63.60
2023-04-30T07:57:55.674Z,63.23
2023-04-30T07:58:58.496Z,63.70
2023-04-30T08:00:01.302Z,63.86
2023-04-30T08:01:04.290Z,63.98
2023-04-30T08:02:08.855Z,63.82
2023-04-30T08:03:12.488Z,63.94
2023-04-30T08:04:15.542Z,63.24
2023-04-30T08:05:18.607Z,63.05
2023-04-30T08:06:21.927Z,62.73
2023-04-30T08:07:25.652Z,62.26
2023-04-30T08:08:28.527Z,62.20
2023-04-30T08:09:31.630Z,60.80
2023-04-30T08:10:34.992Z,61.19
2023-04-30T08:11:37.865Z,62.03
2023-04-30T08:12:40.883Z,62.31
2023-04-30T08:13:43.808Z,61.75
2023-04-30T08:14:46.655Z,61.40
2023-04-30T08:15:49.589Z,61.80
2023-04-30T08:16:52.554Z,61.72
2023-04-30T08:17:55.684Z,61.11
2023-04-30T08:18:59.433Z,61.04
2023-04-30T08:20:04.557Z,61.22
2023-04-30T08:21:07.680Z,61.32
2023-04-30T08:22:10.899Z,61.18
2023-04-30T08:23:13.805Z,61.06
2023-04-30T08:24:16.662Z,60.09
2023-04-30T08:25:19.787Z,59.87
2023-04-30T08:26:23.501Z,60.38
2023-04-30T08:27:26.352Z,60.29
2023-04-30T08:28:29.199Z,60.41
2023-04-30T08:29:32.066Z,60.51
2023-04-30T08:30:34.929Z,60.47
2023-04-30T08:31:37.974Z,60.07
2023-04-30T08:32:41.678Z,59.98
2023-04-30T08:33:44.604Z,59.90
2023-04-30T08:34:47.490Z,60.19
2023-04-30T08:35:51.645Z,60.24
2023-04-30T08:36:54.558Z,60.30
2023-04-30T08:37:57.513Z,60.19
2023-04-30T08:39:02.217Z,60.16
2023-04-30T08:40:09.791Z,60.08
2023-04-30T08:41:13.867Z,59.42
2023-04-30T08:42:19.155Z,59.07
2023-04-30T08:43:22.651Z,58.76
2023-04-30T08:44:27.487Z,58.74
2023-04-30T08:45:32.235Z,59.13
2023-04-30T08:46:37.158Z,59.24
2023-04-30T08:47:41.195Z,58.93
2023-04-30T08:48:44.997Z,58.64
2023-04-30T08:49:52.260Z,58.33
2023-04-30T08:50:55.347Z,58.34
2023-04-30T08:52:00.326Z,57.95
2023-04-30T08:53:03.410Z,58.27
2023-04-30T08:54:06.404Z,58.26
2023-04-30T08:55:11.227Z,58.09
2023-04-30T08:56:14.232Z,58.09
2023-04-30T08:57:17.123Z,58.15
2023-04-30T08:58:20.165Z,57.99
2023-04-30T08:59:23.042Z,57.64
2023-04-30T09:00:27.037Z,56.93
2023-04-30T09:01:31.101Z,56.77
2023-04-30T09:02:34.978Z,57.28
2023-04-30T09:03:38.188Z,57.39
2023-04-30T09:04:41.304Z,57.22
2023-04-30T09:05:44.315Z,56.37
2023-04-30T09:06:47.324Z,56.16
2023-04-30T09:08:01.543Z,55.69
2023-04-30T09:09:11.658Z,55.21
2023-04-30T09:10:22.965Z,54.54
2023-04-30T09:11:31.990Z,54.73
2023-04-30T09:12:36.253Z,54.77
2023-04-30T09:13:42.110Z,54.44
2023-04-30T09:15:05.748Z,54.46
2023-04-30T09:16:08.717Z,54.03
2023-04-30T09:17:22.091Z,54.20
2023-04-30T09:18:24.972Z,54.02
2023-04-30T09:19:29.791Z,54.16
2023-04-30T09:20:32.796Z,54.48
2023-04-30T09:21:36.886Z,54.50
2023-04-30T09:22:41.541Z,53.57
2023-04-30T09:24:05.463Z,52.78
2023-04-30T09:25:09.785Z,52.90
2023-04-30T09:26:26.272Z,52.57
2023-04-30T09:27:29.122Z,52.58
2023-04-30T09:28:32.070Z,52.33
2023-04-30T09:29:38.060Z,52.26
2023-04-30T09:30:41.702Z,52.17
2023-04-30T09:31:47.718Z,52.07
2023-04-30T09:32:57.104Z,51.75
2023-04-30T09:34:00.425Z,50.91
2023-04-30T09:35:03.336Z,50.83
2023-04-30T09:36:10.045Z,51.24
2023-04-30T09:37:13.548Z,51.01
2023-04-30T09:38:32.006Z,50.92
2023-04-30T09:39:47.525Z,51.12
2023-04-30T09:40:50.511Z,50.49
2023-04-30T09:41:57.211Z,49.74
2023-04-30T09:43:00.426Z,49.28
2023-04-30T09:44:03.512Z,49.98
2023-04-30T09:45:07.838Z,50.19
2023-04-30T09:46:11.276Z,49.83
2023-04-30T09:47:21.959Z,49.54
2023-04-30T09:48:29.470Z,48.94
2023-04-30T09:49:32.475Z,49.68
2023-04-30T09:50:43.256Z,49.91
2023-04-30T09:52:02.436Z,48.88
2023-04-30T09:53:09.844Z,49.04
2023-04-30T09:54:14.145Z,49.45
2023-04-30T09:55:17.398Z,49.14
2023-04-30T09:56:26.836Z,48.99
2023-04-30T09:57:32.428Z,48.78
2023-04-30T09:58:39.018Z,49.31
2023-04-30T09:59:46.800Z,48.85
2023-04-30T10:00:52.535Z,47.92
2023-04-30T10:01:58.005Z,47.76
2023-04-30T10:03:07.301Z,48.08
2023-04-30T10:04:10.517Z,48.32
2023-04-30T10:05:13.551Z,48.27
2023-04-30T10:06:19.642Z,48.46
2023-04-30T10:07:25.355Z,48.39
2023-04-30T10:08:28.981Z,48.30
2023-04-30T10:09:44.908Z,47.19
2023-04-30T10:10:54.376Z,46.87
2023-04-30T10:11:57.480Z,47.19
2023-04-30T10:13:07.560Z,46.84
2023-04-30T10:14:12.983Z,46.97
2023-04-30T10:15:21.162Z,46.94
2023-04-30T10:16:34.770Z,46.61
2023-04-30T10:17:41.649Z,46.43
2023-04-30T10:18:46.586Z,46.34
2023-04-30T10:19:52.578Z,46.37
2023-04-30T10:20:57.173Z,46.22
2023-04-30T10:22:01.715Z,46.18
2023-04-30T10:23:05.722Z,45.55
2023-04-30T10:24:11.634Z,45.30
2023-04-30T10:25:14.734Z,45.40
2023-04-30T10:26:18.042Z,45.41
2023-04-30T10:27:21.406Z,45.44
2023-04-30T10:28:26.027Z,45.01
2023-04-30T10:29:28.918Z,44.74
2023-04-30T10:30:32.342Z,44.53
2023-04-30T10:31:37.374Z,44.87
2023-04-30T10:33:01.536Z,44.72
2023-04-30T10:34:29.106Z,44.17
2023-04-30T10:35:41.589Z,44.08
2023-04-30T10:36:50.637Z,43.78
2023-04-30T10:38:09.992Z,43.66
2023-04-30T10:39:13.714Z,43.48
2023-04-30T10:40:16.715Z,43.62
2023-04-30T10:41:20.373Z,44.25
2023-04-30T10:42:23.283Z,44.06
2023-04-30T10:43:26.549Z,43.84
2023-04-30T10:44:32.842Z,43.79
2023-04-30T10:45:38.299Z,43.22
2023-04-30T10:46:41.789Z,43.26
2023-04-30T10:47:48.293Z,43.34
2023-04-30T10:48:54.289Z,43.05
2023-04-30T10:50:09.071Z,42.77
2023-04-30T10:51:11.963Z,42.32
2023-04-30T10:52:14.774Z,42.43
2023-04-30T10:53:20.260Z,42.22
2023-04-30T10:54:30.184Z,42.36
2023-04-30T10:55:33.608Z,42.03
2023-04-30T10:56:36.668Z,42.04
2023-04-30T10:57:44.123Z,42.27
2023-04-30T10:58:47.596Z,42.29
2023-04-30T10:59:50.371Z,42.32
2023-04-30T11:01:12.299Z,42.16
2023-04-30T11:02:18.121Z,41.89
2023-04-30T11:03:22.608Z,41.11
2023-04-30T11:04:26.620Z,41.57
2023-04-30T11:05:39.980Z,41.54
2023-04-30T11:07:00.853Z,41.66
2023-04-30T11:08:04.266Z,41.35
2023-04-30T11:09:07.425Z,40.63
2023-04-30T11:10:10.672Z,40.39
2023-04-30T11:11:22.983Z,40.39
2023-04-30T11:12:30.565Z,40.11
2023-04-30T11:13:47.740Z,39.82
2023-04-30T11:14:50.933Z,39.75
2023-04-30T11:15:54.493Z,39.53
2023-04-30T11:16:59.670Z,39.82
2023-04-30T11:18:02.854Z,39.65
2023-04-30T11:19:09.480Z,39.86
2023-04-30T11:20:15.456Z,40.21
2023-04-30T11:21:21.514Z,40.15
2023-04-30T11:22:25.438Z,39.91
2023-04-30T11:23:39.389Z,39.65
2023-04-30T11:25:00.006Z,39.51
2023-04-30T11:26:03.731Z,39.82
2023-04-30T11:27:06.998Z,39.94
2023-04-30T11:28:15.884Z,40.02
2023-04-30T11:29:18.991Z,39.66
2023-04-30T11:30:22.352Z,39.19
2023-04-30T11:31:33.768Z,38.76
2023-04-30T11:32:38.667Z,38.82
2023-04-30T11:33:41.816Z,39.13
2023-04-30T11:35:57.428Z,39.18
2023-04-30T11:37:03.618Z,38.91
2023-04-30T11:38:08.659Z,38.44
2023-04-30T11:39:12.196Z,38.49
2023-04-30T11:40:15.760Z,38.00
2023-04-30T11:41:21.488Z,38.22
2023-04-30T11:42:24.345Z,38.33
2023-04-30T11:43:32.004Z,38.50
2023-04-30T11:44:34.926Z,38.07
2023-04-30T11:45:39.363Z,38.00
2023-04-30T11:46:42.324Z,38.04
2023-04-30T11:47:46.377Z,37.87
2023-04-30T11:48:49.799Z,38.17
2023-04-30T11:49:53.659Z,38.15
2023-04-30T11:50:56.856Z,37.77
2023-04-30T11:51:59.835Z,37.80
2023-04-30T11:53:04.039Z,37.60
2023-04-30T11:54:08.856Z,37.87
2023-04-30T11:55:16.510Z,37.32
2023-04-30T11:56:21.458Z,37.19
2023-04-30T11:57:24.395Z,37.55
2023-04-30T11:58:28.976Z,37.20
2023-04-30T11:59:40.238Z,36.93
2023-04-30T12:00:43.160Z,36.32
2023-04-30T12:01:46.265Z,36.32
2023-04-30T12:02:50.262Z,36.50
2023-04-30T12:03:57.545Z,36.59
2023-04-30T12:05:00.729Z,36.35
2023-04-30T12:06:03.727Z,36.16
2023-04-30T12:07:08.963Z,36.39
2023-04-30T12:08:12.458Z,36.50
2023-04-30T12:09:15.294Z,36.29
2023-04-30T12:10:21.305Z,35.61
2023-04-30T12:11:29.432Z,35.57
2023-04-30T12:12:32.616Z,35.12
2023-04-30T12:13:35.528Z,34.86
2023-04-30T12:14:38.433Z,35.15
2023-04-30T12:15:41.472Z,34.72
2023-04-30T12:16:50.323Z,34.80
2023-04-30T12:17:55.224Z,34.49
2023-04-30T12:18:58.156Z,34.58
2023-04-30T12:20:01.656Z,34.54
2023-04-30T12:21:04.896Z,34.84
2023-04-30T12:22:07.792Z,34.82
2023-04-30T12:23:10.798Z,34.39
2023-04-30T12:24:15.239Z,34.29
2023-04-30T12:25:22.002Z,33.81
2023-04-30T12:26:25.009Z,33.96
2023-04-30T12:27:27.892Z,33.62
2023-04-30T12:28:30.892Z,33.25
2023-04-30T12:29:33.804Z,33.48
2023-04-30T12:30:36.787Z,33.57
2023-04-30T12:31:39.841Z,33.70
2023-04-30T12:32:45.434Z,33.51
2023-04-30T12:33:57.512Z,33.47
2023-04-30T12:35:01.916Z,33.60
2023-04-30T12:36:10.094Z,33.26
2023-04-30T12:37:16.801Z,32.67
2023-04-30T12:38:20.406Z,32.32
2023-04-30T12:39:23.270Z,32.22
2023-04-30T12:40:27.574Z,31.66
2023-04-30T12:41:30.520Z,31.89
2023-04-30T12:42:34.481Z,32.43
2023-04-30T12:43:37.327Z,32.36
2023-04-30T12:44:45.392Z,32.17
2023-04-30T12:45:55.810Z,31.56
2023-04-30T12:47:01.135Z,31.40
2023-04-30T12:48:04.345Z,31.53
2023-04-30T12:49:07.244Z,31.68
2023-04-30T12:50:14.145Z,31.19
2023-04-30T12:51:20.232Z,30.36
2023-04-30T12:52:26.953Z,30.89
2023-04-30T12:53:29.984Z,30.55
2023-04-30T12:54:33.596Z,30.37
2023-04-30T12:55:37.940Z,29.98
2023-04-30T12:56:58.145Z,30.75
2023-04-30T12:58:13.234Z,30.15
2023-04-30T12:59:17.337Z,30.37
2023-04-30T13:00:22.965Z,30.40
2023-04-30T13:01:26.520Z,30.51
2023-04-30T13:02:32.093Z,30.60
2023-04-30T13:03:35.453Z,29.80
2023-04-30T13:04:39.545Z,29.92
2023-04-30T13:05:46.288Z,29.45
2023-04-30T13:06:49.722Z,29.64
2023-04-30T13:07:55.822Z,29.38
2023-04-30T13:08:59.270Z,29.89
2023-04-30T13:10:02.432Z,29.94
2023-04-30T13:11:05.741Z,29.99
2023-04-30T13:12:08.780Z,30.05
2023-04-30T13:13:13.703Z,29.91
2023-04-30T13:14:17.839Z,29.54
2023-04-30T13:15:20.820Z,29.76
2023-04-30T13:16:25.072Z,29.84
2023-04-30T13:17:28.959Z,30.02
2023-04-30T13:18:33.114Z,29.92
2023-04-30T13:19:36.013Z,30.25
2023-04-30T13:20:39.173Z,30.15
2023-04-30T13:21:42.088Z,29.88
2023-04-30T13:22:45.194Z,29.94
2023-04-30T13:23:53.436Z,29.98
2023-04-30T13:24:57.251Z,30.10
2023-04-30T13:26:00.157Z,30.38
2023-04-30T13:27:04.160Z,30.61
2023-04-30T13:28:07.309Z,30.04
2023-04-30T13:29:11.976Z,30.10
2023-04-30T13:30:14.844Z,30.14
2023-04-30T13:31:17.813Z,30.01
2023-04-30T13:32:20.914Z,29.88
2023-04-30T13:33:23.904Z,30.22
2023-04-30T13:34:26.974Z,30.30
2023-04-30T13:35:30.091Z,30.33
2023-04-30T13:36:33.153Z,30.59
2023-04-30T13:37:36.481Z,30.31
2023-04-30T13:38:39.641Z,30.15
2023-04-30T13:39:42.564Z,30.36
2023-04-30T13:40:45.387Z,30.33
2023-04-30T13:41:49.291Z,30.12
2023-04-30T13:42:52.165Z,30.39
2023-04-30T13:43:55.056Z,30.79
2023-04-30T13:44:58.214Z,30.27
2023-04-30T13:46:01.925Z,30.47
2023-04-30T13:47:04.902Z,30.84
2023-04-30T13:48:07.853Z,30.86
2023-04-30T13:49:10.754Z,30.82
2023-04-30T13:50:13.707Z,31.09
2023-04-30T13:51:16.589Z,31.18
2023-04-30T13:52:19.468Z,31.34
2023-04-30T13:53:22.788Z,31.50
2023-04-30T13:54:25.750Z,31.53
2023-04-30T13:55:29.419Z,31.39
2023-04-30T13:56:32.400Z,31.91
2023-04-30T13:57:35.565Z,31.85